sensor_id;sensor_type;location;lat;lon;timestamp;P1;durP1;ratioP1;P2;durP2;ratioP2
11747;SDS011;5931;48.832;9.072;2023-04-07T00:01:01;10.67;;;5.50;;
11747;SDS011;5931;48.832;9.072;2023-04-07T00:03:27;9.13;;;5.13;;
11747;SDS011;5931;48.832;9.072;2023-04-07T00:05:53;9.23;;;4.87;;
11747;SDS011;5931;48.832;9.072;2023-04-07T00:08:18;8.00;;;5.17;;
11747;SDS011;5931;48.832;9.072;2023-04-07T00:10:44;8.40;;;5.23;;
11747;SDS011;5931;48.832;9.072;2023-04-07T00:13:10;11.13;;;5.43;;
11747;SDS011;5931;48.832;9.072;2023-04-07T00:15:36;7.03;;;4.90;;
11747;SDS011;5931;48.832;9.072;2023-04-07T00:18:02;9.43;;;5.60;;
11747;SDS011;5931;48.832;9.072;2023-04-07T00:20:28;8.10;;;4.63;;
11747;SDS011;5931;48.832;9.072;2023-04-07T00:22:53;7.60;;;5.30;;
11747;SDS011;5931;48.832;9.072;2023-04-07T00:25:19;8.90;;;5.30;;
11747;SDS011;5931;48.832;9.072;2023-04-07T00:27:45;9.03;;;5.50;;
11747;SDS011;5931;48.832;9.072;2023-04-07T00:30:11;7.93;;;4.77;;
11747;SDS011;5931;48.832;9.072;2023-04-07T00:32:36;8.23;;;4.90;;
11747;SDS011;5931;48.832;9.072;2023-04-07T00:35:03;8.10;;;4.73;;
11747;SDS011;5931;48.832;9.072;2023-04-07T00:37:29;9.03;;;4.53;;
11747;SDS011;5931;48.832;9.072;2023-04-07T00:39:55;9.00;;;4.90;;
11747;SDS011;5931;48.832;9.072;2023-04-07T00:42:22;8.27;;;5.47;;
11747;SDS011;5931;48.832;9.072;2023-04-07T00:44:47;11.80;;;4.70;;
11747;SDS011;5931;48.832;9.072;2023-04-07T00:47:13;9.60;;;5.73;;
11747;SDS011;5931;48.832;9.072;2023-04-07T00:49:40;9.03;;;5.33;;
11747;SDS011;5931;48.832;9.072;2023-04-07T00:52:05;12.90;;;5.30;;
11747;SDS011;5931;48.832;9.072;2023-04-07T00:54:35;9.50;;;5.60;;
11747;SDS011;5931;48.832;9.072;2023-04-07T00:57:03;10.93;;;6.50;;
11747;SDS011;5931;48.832;9.072;2023-04-07T00:59:29;9.03;;;5.50;;
11747;SDS011;5931;48.832;9.072;2023-04-07T01:07:28;9.57;;;5.43;;
11747;SDS011;5931;48.832;9.072;2023-04-07T01:10:07;11.23;;;5.40;;
11747;SDS011;5931;48.832;9.072;2023-04-07T01:12:51;10.40;;;4.90;;
11747;SDS011;5931;48.832;9.072;2023-04-07T01:15:29;7.60;;;5.00;;
11747;SDS011;5931;48.832;9.072;2023-04-07T01:18:05;10.57;;;5.90;;
11747;SDS011;5931;48.832;9.072;2023-04-07T01:20:36;8.77;;;6.03;;
11747;SDS011;5931;48.832;9.072;2023-04-07T01:23:05;8.80;;;4.87;;
11747;SDS011;5931;48.832;9.072;2023-04-07T01:25:34;14.70;;;6.03;;
11747;SDS011;5931;48.832;9.072;2023-04-07T01:31:36;6.83;;;4.97;;
11747;SDS011;5931;48.832;9.072;2023-04-07T01:34:05;9.00;;;5.23;;
11747;SDS011;5931;48.832;9.072;2023-04-07T01:36:33;7.67;;;5.03;;
11747;SDS011;5931;48.832;9.072;2023-04-07T01:38:59;12.47;;;5.50;;
11747;SDS011;5931;48.832;9.072;2023-04-07T01:41:26;8.43;;;4.67;;
11747;SDS011;5931;48.832;9.072;2023-04-07T01:43:52;11.10;;;6.20;;
11747;SDS011;5931;48.832;9.072;2023-04-07T01:46:19;12.03;;;5.57;;
11747;SDS011;5931;48.832;9.072;2023-04-07T01:48:45;10.43;;;5.90;;
11747;SDS011;5931;48.832;9.072;2023-04-07T01:51:12;11.70;;;6.20;;
11747;SDS011;5931;48.832;9.072;2023-04-07T01:53:44;10.13;;;6.37;;
11747;SDS011;5931;48.832;9.072;2023-04-07T01:56:10;7.80;;;4.90;;
11747;SDS011;5931;48.832;9.072;2023-04-07T01:58:36;8.77;;;5.33;;
11747;SDS011;5931;48.832;9.072;2023-04-07T02:01:04;9.80;;;6.23;;
11747;SDS011;5931;48.832;9.072;2023-04-07T02:03:30;11.73;;;6.60;;
11747;SDS011;5931;48.832;9.072;2023-04-07T02:06:06;11.57;;;5.57;;
11747;SDS011;5931;48.832;9.072;2023-04-07T02:08:34;9.27;;;5.57;;
11747;SDS011;5931;48.832;9.072;2023-04-07T02:11:02;9.97;;;5.90;;
11747;SDS011;5931;48.832;9.072;2023-04-07T02:13:34;6.93;;;4.87;;
11747;SDS011;5931;48.832;9.072;2023-04-07T02:16:01;13.03;;;6.50;;
11747;SDS011;5931;48.832;9.072;2023-04-07T02:18:30;12.50;;;6.23;;
11747;SDS011;5931;48.832;9.072;2023-04-07T02:20:57;9.27;;;5.40;;
11747;SDS011;5931;48.832;9.072;2023-04-07T02:23:24;13.43;;;5.70;;
11747;SDS011;5931;48.832;9.072;2023-04-07T02:25:50;9.63;;;4.90;;
11747;SDS011;5931;48.832;9.072;2023-04-07T02:28:15;11.63;;;5.93;;
11747;SDS011;5931;48.832;9.072;2023-04-07T02:30:44;14.33;;;6.00;;
11747;SDS011;5931;48.832;9.072;2023-04-07T02:33:09;9.80;;;5.60;;
11747;SDS011;5931;48.832;9.072;2023-04-07T02:35:35;10.30;;;5.60;;
11747;SDS011;5931;48.832;9.072;2023-04-07T02:38:00;11.30;;;5.90;;
11747;SDS011;5931;48.832;9.072;2023-04-07T02:40:26;9.17;;;5.43;;
11747;SDS011;5931;48.832;9.072;2023-04-07T02:42:52;10.30;;;5.03;;
11747;SDS011;5931;48.832;9.072;2023-04-07T02:45:20;10.23;;;6.23;;
11747;SDS011;5931;48.832;9.072;2023-04-07T02:47:45;10.60;;;6.23;;
11747;SDS011;5931;48.832;9.072;2023-04-07T02:50:11;9.63;;;5.37;;
11747;SDS011;5931;48.832;9.072;2023-04-07T02:52:37;11.80;;;6.90;;
11747;SDS011;5931;48.832;9.072;2023-04-07T02:55:08;7.50;;;5.00;;
11747;SDS011;5931;48.832;9.072;2023-04-07T02:57:34;11.20;;;6.30;;
11747;SDS011;5931;48.832;9.072;2023-04-07T03:00:03;9.23;;;5.37;;
11747;SDS011;5931;48.832;9.072;2023-04-07T03:02:45;10.53;;;5.53;;
11747;SDS011;5931;48.832;9.072;2023-04-07T03:05:11;9.23;;;6.00;;
11747;SDS011;5931;48.832;9.072;2023-04-07T03:07:37;8.37;;;5.33;;
11747;SDS011;5931;48.832;9.072;2023-04-07T03:10:03;10.57;;;6.53;;
11747;SDS011;5931;48.832;9.072;2023-04-07T03:12:30;11.20;;;5.90;;
11747;SDS011;5931;48.832;9.072;2023-04-07T03:14:56;7.50;;;4.90;;
11747;SDS011;5931;48.832;9.072;2023-04-07T03:17:23;9.87;;;5.60;;
11747;SDS011;5931;48.832;9.072;2023-04-07T03:19:49;11.63;;;6.10;;
11747;SDS011;5931;48.832;9.072;2023-04-07T03:22:17;8.90;;;5.60;;
11747;SDS011;5931;48.832;9.072;2023-04-07T03:24:47;8.70;;;5.50;;
11747;SDS011;5931;48.832;9.072;2023-04-07T03:27:13;9.10;;;5.00;;
11747;SDS011;5931;48.832;9.072;2023-04-07T03:29:43;13.13;;;5.53;;
11747;SDS011;5931;48.832;9.072;2023-04-07T03:32:11;9.67;;;6.27;;
11747;SDS011;5931;48.832;9.072;2023-04-07T03:34:37;9.53;;;6.00;;
11747;SDS011;5931;48.832;9.072;2023-04-07T03:37:03;8.90;;;5.37;;
11747;SDS011;5931;48.832;9.072;2023-04-07T03:39:31;10.90;;;6.03;;
11747;SDS011;5931;48.832;9.072;2023-04-07T03:41:59;8.93;;;5.23;;
11747;SDS011;5931;48.832;9.072;2023-04-07T03:44:28;7.93;;;5.40;;
11747;SDS011;5931;48.832;9.072;2023-04-07T03:46:54;7.70;;;4.80;;
11747;SDS011;5931;48.832;9.072;2023-04-07T03:49:21;10.80;;;5.37;;
11747;SDS011;5931;48.832;9.072;2023-04-07T03:51:49;12.30;;;6.00;;
11747;SDS011;5931;48.832;9.072;2023-04-07T03:54:16;10.90;;;6.77;;
11747;SDS011;5931;48.832;9.072;2023-04-07T03:56:43;9.50;;;4.83;;
11747;SDS011;5931;48.832;9.072;2023-04-07T03:59:09;10.40;;;6.23;;
11747;SDS011;5931;48.832;9.072;2023-04-07T04:01:42;9.20;;;6.60;;
11747;SDS011;5931;48.832;9.072;2023-04-07T04:04:11;8.00;;;5.10;;
11747;SDS011;5931;48.832;9.072;2023-04-07T04:06:37;10.03;;;5.50;;
11747;SDS011;5931;48.832;9.072;2023-04-07T04:09:13;9.70;;;5.33;;
11747;SDS011;5931;48.832;9.072;2023-04-07T04:11:43;10.73;;;5.27;;
11747;SDS011;5931;48.832;9.072;2023-04-07T04:14:09;8.17;;;5.50;;
11747;SDS011;5931;48.832;9.072;2023-04-07T04:16:36;8.60;;;5.30;;
11747;SDS011;5931;48.832;9.072;2023-04-07T04:19:07;10.77;;;5.47;;
11747;SDS011;5931;48.832;9.072;2023-04-07T04:21:33;8.53;;;5.50;;
11747;SDS011;5931;48.832;9.072;2023-04-07T04:23:59;10.07;;;5.57;;
11747;SDS011;5931;48.832;9.072;2023-04-07T04:26:27;9.30;;;5.57;;
11747;SDS011;5931;48.832;9.072;2023-04-07T04:28:56;9.90;;;5.77;;
11747;SDS011;5931;48.832;9.072;2023-04-07T04:31:23;10.70;;;6.00;;
11747;SDS011;5931;48.832;9.072;2023-04-07T04:33:49;10.97;;;4.90;;
11747;SDS011;5931;48.832;9.072;2023-04-07T04:36:14;11.80;;;6.40;;
11747;SDS011;5931;48.832;9.072;2023-04-07T04:38:41;7.10;;;4.83;;
11747;SDS011;5931;48.832;9.072;2023-04-07T04:41:17;7.80;;;5.53;;
11747;SDS011;5931;48.832;9.072;2023-04-07T04:43:43;9.17;;;5.23;;
11747;SDS011;5931;48.832;9.072;2023-04-07T04:46:13;10.50;;;5.87;;
11747;SDS011;5931;48.832;9.072;2023-04-07T04:48:41;10.70;;;6.77;;
11747;SDS011;5931;48.832;9.072;2023-04-07T04:51:07;8.67;;;5.43;;
11747;SDS011;5931;48.832;9.072;2023-04-07T04:53:33;11.80;;;5.80;;
11747;SDS011;5931;48.832;9.072;2023-04-07T04:56:00;10.30;;;5.67;;
11747;SDS011;5931;48.832;9.072;2023-04-07T04:58:47;10.20;;;5.23;;
11747;SDS011;5931;48.832;9.072;2023-04-07T05:01:20;11.73;;;6.00;;
11747;SDS011;5931;48.832;9.072;2023-04-07T05:03:55;9.07;;;5.40;;
11747;SDS011;5931;48.832;9.072;2023-04-07T05:06:25;7.77;;;4.90;;
11747;SDS011;5931;48.832;9.072;2023-04-07T05:08:52;6.37;;;4.00;;
11747;SDS011;5931;48.832;9.072;2023-04-07T05:11:22;11.90;;;5.47;;
11747;SDS011;5931;48.832;9.072;2023-04-07T05:13:51;8.60;;;5.40;;
11747;SDS011;5931;48.832;9.072;2023-04-07T05:16:16;16.10;;;6.10;;
11747;SDS011;5931;48.832;9.072;2023-04-07T05:18:42;10.77;;;5.87;;
11747;SDS011;5931;48.832;9.072;2023-04-07T05:21:08;20.03;;;10.80;;
11747;SDS011;5931;48.832;9.072;2023-04-07T05:23:35;12.77;;;7.67;;
11747;SDS011;5931;48.832;9.072;2023-04-07T05:26:02;10.97;;;5.77;;
11747;SDS011;5931;48.832;9.072;2023-04-07T05:28:28;11.27;;;6.40;;
11747;SDS011;5931;48.832;9.072;2023-04-07T05:30:58;9.90;;;5.93;;
11747;SDS011;5931;48.832;9.072;2023-04-07T05:33:28;10.90;;;5.57;;
11747;SDS011;5931;48.832;9.072;2023-04-07T05:35:54;14.77;;;6.00;;
11747;SDS011;5931;48.832;9.072;2023-04-07T05:38:20;8.23;;;5.20;;
11747;SDS011;5931;48.832;9.072;2023-04-07T05:40:46;11.00;;;5.23;;
11747;SDS011;5931;48.832;9.072;2023-04-07T05:43:19;9.90;;;5.87;;
11747;SDS011;5931;48.832;9.072;2023-04-07T05:45:45;13.30;;;6.77;;
11747;SDS011;5931;48.832;9.072;2023-04-07T05:48:11;7.37;;;5.13;;
11747;SDS011;5931;48.832;9.072;2023-04-07T05:50:42;9.20;;;5.57;;
11747;SDS011;5931;48.832;9.072;2023-04-07T05:53:11;10.63;;;6.73;;
11747;SDS011;5931;48.832;9.072;2023-04-07T05:55:37;9.17;;;7.20;;
11747;SDS011;5931;48.832;9.072;2023-04-07T05:58:06;10.23;;;6.27;;
11747;SDS011;5931;48.832;9.072;2023-04-07T06:00:32;10.13;;;6.33;;
11747;SDS011;5931;48.832;9.072;2023-04-07T06:03:04;10.90;;;5.97;;
11747;SDS011;5931;48.832;9.072;2023-04-07T06:05:39;12.33;;;6.90;;
11747;SDS011;5931;48.832;9.072;2023-04-07T06:08:09;13.50;;;6.57;;
11747;SDS011;5931;48.832;9.072;2023-04-07T06:10:35;9.73;;;5.73;;
11747;SDS011;5931;48.832;9.072;2023-04-07T06:13:00;9.30;;;5.27;;
11747;SDS011;5931;48.832;9.072;2023-04-07T06:15:26;8.93;;;5.70;;
11747;SDS011;5931;48.832;9.072;2023-04-07T06:17:52;9.80;;;6.07;;
11747;SDS011;5931;48.832;9.072;2023-04-07T06:20:17;8.73;;;5.70;;
11747;SDS011;5931;48.832;9.072;2023-04-07T06:22:45;10.70;;;5.63;;
11747;SDS011;5931;48.832;9.072;2023-04-07T06:25:11;12.50;;;6.30;;
11747;SDS011;5931;48.832;9.072;2023-04-07T06:27:37;7.63;;;5.00;;
11747;SDS011;5931;48.832;9.072;2023-04-07T06:30:03;10.40;;;6.13;;
11747;SDS011;5931;48.832;9.072;2023-04-07T06:32:29;8.87;;;5.43;;
11747;SDS011;5931;48.832;9.072;2023-04-07T06:34:55;9.10;;;5.40;;
11747;SDS011;5931;48.832;9.072;2023-04-07T06:37:21;11.53;;;6.07;;
11747;SDS011;5931;48.832;9.072;2023-04-07T06:39:49;10.93;;;6.13;;
11747;SDS011;5931;48.832;9.072;2023-04-07T06:42:14;11.17;;;6.33;;
11747;SDS011;5931;48.832;9.072;2023-04-07T06:44:48;11.43;;;6.17;;
11747;SDS011;5931;48.832;9.072;2023-04-07T06:47:14;10.70;;;5.73;;
11747;SDS011;5931;48.832;9.072;2023-04-07T06:49:40;8.03;;;5.10;;
11747;SDS011;5931;48.832;9.072;2023-04-07T06:52:05;11.03;;;6.80;;
11747;SDS011;5931;48.832;9.072;2023-04-07T06:54:31;9.17;;;5.80;;
11747;SDS011;5931;48.832;9.072;2023-04-07T06:56:57;9.67;;;6.10;;
11747;SDS011;5931;48.832;9.072;2023-04-07T06:59:23;10.23;;;6.10;;
11747;SDS011;5931;48.832;9.072;2023-04-07T07:01:48;13.00;;;6.27;;
11747;SDS011;5931;48.832;9.072;2023-04-07T07:04:14;8.13;;;5.53;;
11747;SDS011;5931;48.832;9.072;2023-04-07T07:06:40;8.33;;;5.97;;
11747;SDS011;5931;48.832;9.072;2023-04-07T07:09:05;9.87;;;5.33;;
11747;SDS011;5931;48.832;9.072;2023-04-07T07:11:31;9.50;;;6.10;;
11747;SDS011;5931;48.832;9.072;2023-04-07T07:13:57;8.30;;;5.60;;
11747;SDS011;5931;48.832;9.072;2023-04-07T07:16:22;13.27;;;6.17;;
11747;SDS011;5931;48.832;9.072;2023-04-07T07:18:48;11.83;;;5.80;;
11747;SDS011;5931;48.832;9.072;2023-04-07T07:21:16;11.43;;;4.97;;
11747;SDS011;5931;48.832;9.072;2023-04-07T07:23:42;12.47;;;6.90;;
11747;SDS011;5931;48.832;9.072;2023-04-07T07:26:08;9.50;;;6.03;;
11747;SDS011;5931;48.832;9.072;2023-04-07T07:28:34;10.17;;;7.00;;
11747;SDS011;5931;48.832;9.072;2023-04-07T07:31:00;9.20;;;5.67;;
11747;SDS011;5931;48.832;9.072;2023-04-07T07:33:34;8.68;;;5.30;;
11747;SDS011;5931;48.832;9.072;2023-04-07T07:36:00;14.70;;;5.90;;
11747;SDS011;5931;48.832;9.072;2023-04-07T07:38:25;9.50;;;5.90;;
11747;SDS011;5931;48.832;9.072;2023-04-07T07:40:51;8.37;;;5.30;;
11747;SDS011;5931;48.832;9.072;2023-04-07T07:43:17;9.77;;;5.80;;
11747;SDS011;5931;48.832;9.072;2023-04-07T07:45:43;7.33;;;5.50;;
11747;SDS011;5931;48.832;9.072;2023-04-07T07:48:08;17.00;;;5.67;;
11747;SDS011;5931;48.832;9.072;2023-04-07T07:50:34;7.27;;;4.87;;
11747;SDS011;5931;48.832;9.072;2023-04-07T07:53:00;7.40;;;5.20;;
11747;SDS011;5931;48.832;9.072;2023-04-07T07:55:26;13.00;;;5.93;;
11747;SDS011;5931;48.832;9.072;2023-04-07T07:57:51;8.30;;;4.87;;
11747;SDS011;5931;48.832;9.072;2023-04-07T08:00:17;10.93;;;6.37;;
11747;SDS011;5931;48.832;9.072;2023-04-07T08:02:43;10.20;;;5.10;;
11747;SDS011;5931;48.832;9.072;2023-04-07T08:05:09;7.37;;;4.90;;
11747;SDS011;5931;48.832;9.072;2023-04-07T08:07:38;7.37;;;5.10;;
11747;SDS011;5931;48.832;9.072;2023-04-07T08:10:07;8.50;;;4.43;;
11747;SDS011;5931;48.832;9.072;2023-04-07T08:12:33;9.40;;;4.70;;
11747;SDS011;5931;48.832;9.072;2023-04-07T08:14:59;9.10;;;5.47;;
11747;SDS011;5931;48.832;9.072;2023-04-07T08:17:25;8.20;;;4.67;;
11747;SDS011;5931;48.832;9.072;2023-04-07T08:19:51;7.07;;;4.20;;
11747;SDS011;5931;48.832;9.072;2023-04-07T08:22:16;7.37;;;5.17;;
11747;SDS011;5931;48.832;9.072;2023-04-07T08:24:45;10.40;;;4.80;;
11747;SDS011;5931;48.832;9.072;2023-04-07T08:27:11;9.83;;;4.40;;
11747;SDS011;5931;48.832;9.072;2023-04-07T08:29:37;7.43;;;4.50;;
11747;SDS011;5931;48.832;9.072;2023-04-07T08:32:03;5.53;;;3.60;;
11747;SDS011;5931;48.832;9.072;2023-04-07T08:34:29;4.03;;;3.10;;
11747;SDS011;5931;48.832;9.072;2023-04-07T08:36:55;5.77;;;3.43;;
11747;SDS011;5931;48.832;9.072;2023-04-07T08:39:21;7.57;;;3.00;;
11747;SDS011;5931;48.832;9.072;2023-04-07T08:41:49;5.30;;;3.37;;
11747;SDS011;5931;48.832;9.072;2023-04-07T08:44:15;6.10;;;3.37;;
11747;SDS011;5931;48.832;9.072;2023-04-07T08:46:42;4.20;;;3.50;;
11747;SDS011;5931;48.832;9.072;2023-04-07T08:49:09;5.10;;;3.80;;
11747;SDS011;5931;48.832;9.072;2023-04-07T08:51:37;6.37;;;3.80;;
11747;SDS011;5931;48.832;9.072;2023-04-07T08:54:13;6.13;;;3.80;;
11747;SDS011;5931;48.832;9.072;2023-04-07T08:56:41;5.30;;;3.20;;
11747;SDS011;5931;48.832;9.072;2023-04-07T08:59:08;5.60;;;3.57;;
11747;SDS011;5931;48.832;9.072;2023-04-07T09:01:36;4.10;;;3.50;;
11747;SDS011;5931;48.832;9.072;2023-04-07T09:04:02;6.77;;;3.60;;
11747;SDS011;5931;48.832;9.072;2023-04-07T09:06:29;3.77;;;3.47;;
11747;SDS011;5931;48.832;9.072;2023-04-07T09:08:56;6.00;;;3.27;;
11747;SDS011;5931;48.832;9.072;2023-04-07T09:11:22;6.50;;;3.70;;
11747;SDS011;5931;48.832;9.072;2023-04-07T09:13:49;4.57;;;3.10;;
11747;SDS011;5931;48.832;9.072;2023-04-07T09:16:15;4.37;;;3.70;;
11747;SDS011;5931;48.832;9.072;2023-04-07T09:18:41;4.20;;;3.80;;
11747;SDS011;5931;48.832;9.072;2023-04-07T09:21:08;3.73;;;3.07;;
11747;SDS011;5931;48.832;9.072;2023-04-07T09:23:36;5.53;;;3.37;;
11747;SDS011;5931;48.832;9.072;2023-04-07T09:31:23;4.77;;;4.17;;
11747;SDS011;5931;48.832;9.072;2023-04-07T09:34:22;7.90;;;3.20;;
11747;SDS011;5931;48.832;9.072;2023-04-07T09:36:56;5.20;;;3.13;;
11747;SDS011;5931;48.832;9.072;2023-04-07T09:39:22;3.50;;;2.80;;
11747;SDS011;5931;48.832;9.072;2023-04-07T09:41:48;3.80;;;3.03;;
11747;SDS011;5931;48.832;9.072;2023-04-07T09:44:15;7.50;;;4.60;;
11747;SDS011;5931;48.832;9.072;2023-04-07T09:46:47;5.70;;;3.63;;
11747;SDS011;5931;48.832;9.072;2023-04-07T09:49:23;4.57;;;3.70;;
11747;SDS011;5931;48.832;9.072;2023-04-07T09:54:37;7.43;;;4.00;;
11747;SDS011;5931;48.832;9.072;2023-04-07T09:57:04;4.83;;;3.70;;
11747;SDS011;5931;48.832;9.072;2023-04-07T09:59:35;6.10;;;4.13;;
11747;SDS011;5931;48.832;9.072;2023-04-07T10:02:06;4.03;;;3.47;;
11747;SDS011;5931;48.832;9.072;2023-04-07T10:04:33;6.57;;;3.37;;
11747;SDS011;5931;48.832;9.072;2023-04-07T10:06:58;5.03;;;3.33;;
11747;SDS011;5931;48.832;9.072;2023-04-07T10:09:27;5.37;;;3.67;;
11747;SDS011;5931;48.832;9.072;2023-04-07T10:11:54;4.17;;;2.83;;
11747;SDS011;5931;48.832;9.072;2023-04-07T10:14:21;5.60;;;3.20;;
11747;SDS011;5931;48.832;9.072;2023-04-07T10:16:51;4.57;;;3.60;;
11747;SDS011;5931;48.832;9.072;2023-04-07T10:19:18;5.00;;;2.83;;
11747;SDS011;5931;48.832;9.072;2023-04-07T10:21:44;5.43;;;2.80;;
11747;SDS011;5931;48.832;9.072;2023-04-07T10:24:36;6.00;;;3.33;;
11747;SDS011;5931;48.832;9.072;2023-04-07T10:27:10;4.27;;;3.70;;
11747;SDS011;5931;48.832;9.072;2023-04-07T10:29:41;6.17;;;3.27;;
11747;SDS011;5931;48.832;9.072;2023-04-07T10:32:09;3.60;;;3.30;;
11747;SDS011;5931;48.832;9.072;2023-04-07T10:34:54;6.70;;;2.33;;
11747;SDS011;5931;48.832;9.072;2023-04-07T10:37:22;2.60;;;2.40;;
11747;SDS011;5931;48.832;9.072;2023-04-07T10:39:49;4.70;;;3.20;;
11747;SDS011;5931;48.832;9.072;2023-04-07T10:45:05;3.67;;;3.10;;
11747;SDS011;5931;48.832;9.072;2023-04-07T10:47:33;4.50;;;4.00;;
11747;SDS011;5931;48.832;9.072;2023-04-07T10:52:46;6.57;;;4.60;;
11747;SDS011;5931;48.832;9.072;2023-04-07T10:55:40;4.80;;;3.30;;
11747;SDS011;5931;48.832;9.072;2023-04-07T11:03:25;4.73;;;3.63;;
11747;SDS011;5931;48.832;9.072;2023-04-07T11:05:52;7.40;;;3.70;;
11747;SDS011;5931;48.832;9.072;2023-04-07T11:08:38;6.40;;;3.90;;
11747;SDS011;5931;48.832;9.072;2023-04-07T11:11:08;6.87;;;3.80;;
11747;SDS011;5931;48.832;9.072;2023-04-07T11:13:39;6.43;;;4.00;;
11747;SDS011;5931;48.832;9.072;2023-04-07T11:16:15;10.97;;;4.77;;
11747;SDS011;5931;48.832;9.072;2023-04-07T11:18:43;6.17;;;4.80;;
11747;SDS011;5931;48.832;9.072;2023-04-07T11:21:10;9.90;;;4.87;;
11747;SDS011;5931;48.832;9.072;2023-04-07T11:23:39;5.83;;;4.40;;
11747;SDS011;5931;48.832;9.072;2023-04-07T11:26:10;10.17;;;5.23;;
11747;SDS011;5931;48.832;9.072;2023-04-07T11:28:48;4.20;;;3.70;;
11747;SDS011;5931;48.832;9.072;2023-04-07T11:31:26;7.47;;;4.73;;
11747;SDS011;5931;48.832;9.072;2023-04-07T11:33:56;7.50;;;5.37;;
11747;SDS011;5931;48.832;9.072;2023-04-07T11:36:39;10.80;;;7.20;;
11747;SDS011;5931;48.832;9.072;2023-04-07T11:39:16;9.63;;;5.93;;
11747;SDS011;5931;48.832;9.072;2023-04-07T11:41:46;9.97;;;6.47;;
11747;SDS011;5931;48.832;9.072;2023-04-07T11:44:13;7.53;;;4.27;;
11747;SDS011;5931;48.832;9.072;2023-04-07T11:49:22;6.17;;;5.13;;
11747;SDS011;5931;48.832;9.072;2023-04-07T11:51:56;7.60;;;4.87;;
11747;SDS011;5931;48.832;9.072;2023-04-07T11:54:27;7.60;;;5.17;;
11747;SDS011;5931;48.832;9.072;2023-04-07T11:57:04;10.10;;;5.23;;
11747;SDS011;5931;48.832;9.072;2023-04-07T11:59:30;4.97;;;4.27;;
11747;SDS011;5931;48.832;9.072;2023-04-07T12:01:56;5.27;;;4.00;;
11747;SDS011;5931;48.832;9.072;2023-04-07T12:06:49;4.90;;;3.90;;
11747;SDS011;5931;48.832;9.072;2023-04-07T12:09:31;4.70;;;3.67;;
11747;SDS011;5931;48.832;9.072;2023-04-07T12:12:00;7.80;;;4.13;;
11747;SDS011;5931;48.832;9.072;2023-04-07T12:14:27;4.10;;;3.60;;
11747;SDS011;5931;48.832;9.072;2023-04-07T12:16:53;3.80;;;3.30;;
11747;SDS011;5931;48.832;9.072;2023-04-07T12:19:27;6.87;;;3.63;;
11747;SDS011;5931;48.832;9.072;2023-04-07T12:21:53;5.70;;;2.90;;
11747;SDS011;5931;48.832;9.072;2023-04-07T12:24:20;7.60;;;3.93;;
11747;SDS011;5931;48.832;9.072;2023-04-07T12:26:46;5.30;;;3.97;;
11747;SDS011;5931;48.832;9.072;2023-04-07T12:29:12;5.53;;;3.13;;
11747;SDS011;5931;48.832;9.072;2023-04-07T12:31:38;6.87;;;4.40;;
11747;SDS011;5931;48.832;9.072;2023-04-07T12:34:04;7.10;;;3.47;;
11747;SDS011;5931;48.832;9.072;2023-04-07T12:36:30;9.80;;;4.70;;
11747;SDS011;5931;48.832;9.072;2023-04-07T12:38:56;5.70;;;4.30;;
11747;SDS011;5931;48.832;9.072;2023-04-07T12:41:22;7.47;;;4.43;;
11747;SDS011;5931;48.832;9.072;2023-04-07T12:43:48;5.17;;;4.40;;
11747;SDS011;5931;48.832;9.072;2023-04-07T12:46:14;6.17;;;4.80;;
11747;SDS011;5931;48.832;9.072;2023-04-07T12:48:40;9.00;;;4.50;;
11747;SDS011;5931;48.832;9.072;2023-04-07T12:51:06;7.73;;;4.63;;
11747;SDS011;5931;48.832;9.072;2023-04-07T12:53:32;7.40;;;5.20;;
11747;SDS011;5931;48.832;9.072;2023-04-07T12:55:58;18.57;;;4.80;;
11747;SDS011;5931;48.832;9.072;2023-04-07T12:58:23;6.37;;;4.67;;
11747;SDS011;5931;48.832;9.072;2023-04-07T13:00:51;5.13;;;4.10;;
11747;SDS011;5931;48.832;9.072;2023-04-07T13:03:17;7.17;;;4.97;;
11747;SDS011;5931;48.832;9.072;2023-04-07T13:05:43;6.90;;;4.17;;
11747;SDS011;5931;48.832;9.072;2023-04-07T13:08:08;7.93;;;4.63;;
11747;SDS011;5931;48.832;9.072;2023-04-07T13:10:35;5.47;;;3.83;;
11747;SDS011;5931;48.832;9.072;2023-04-07T13:13:00;4.00;;;3.20;;
11747;SDS011;5931;48.832;9.072;2023-04-07T13:15:26;4.67;;;3.20;;
11747;SDS011;5931;48.832;9.072;2023-04-07T13:17:53;5.60;;;3.53;;
11747;SDS011;5931;48.832;9.072;2023-04-07T13:20:19;5.20;;;3.30;;
11747;SDS011;5931;48.832;9.072;2023-04-07T13:22:45;6.90;;;3.40;;
11747;SDS011;5931;48.832;9.072;2023-04-07T13:25:11;7.40;;;3.30;;
11747;SDS011;5931;48.832;9.072;2023-04-07T13:27:37;5.97;;;3.30;;
11747;SDS011;5931;48.832;9.072;2023-04-07T13:30:03;6.27;;;3.37;;
11747;SDS011;5931;48.832;9.072;2023-04-07T13:32:30;4.90;;;3.70;;
11747;SDS011;5931;48.832;9.072;2023-04-07T13:34:55;4.43;;;3.13;;
11747;SDS011;5931;48.832;9.072;2023-04-07T13:37:21;7.80;;;3.50;;
11747;SDS011;5931;48.832;9.072;2023-04-07T13:39:47;5.27;;;3.13;;
11747;SDS011;5931;48.832;9.072;2023-04-07T13:42:13;7.50;;;3.20;;
11747;SDS011;5931;48.832;9.072;2023-04-07T13:44:41;4.70;;;3.23;;
11747;SDS011;5931;48.832;9.072;2023-04-07T13:47:11;3.53;;;3.10;;
11747;SDS011;5931;48.832;9.072;2023-04-07T13:49:39;9.50;;;3.47;;
11747;SDS011;5931;48.832;9.072;2023-04-07T13:52:05;3.97;;;3.10;;
11747;SDS011;5931;48.832;9.072;2023-04-07T13:54:30;5.57;;;3.37;;
11747;SDS011;5931;48.832;9.072;2023-04-07T13:56:56;3.07;;;2.77;;
11747;SDS011;5931;48.832;9.072;2023-04-07T13:59:22;3.47;;;2.73;;
11747;SDS011;5931;48.832;9.072;2023-04-07T14:01:47;4.70;;;3.20;;
11747;SDS011;5931;48.832;9.072;2023-04-07T14:04:13;6.40;;;2.73;;
11747;SDS011;5931;48.832;9.072;2023-04-07T14:06:39;4.90;;;3.20;;
11747;SDS011;5931;48.832;9.072;2023-04-07T14:09:05;4.60;;;3.00;;
11747;SDS011;5931;48.832;9.072;2023-04-07T14:11:32;5.70;;;3.50;;
11747;SDS011;5931;48.832;9.072;2023-04-07T14:13:58;3.20;;;2.90;;
11747;SDS011;5931;48.832;9.072;2023-04-07T14:16:25;7.50;;;2.60;;
11747;SDS011;5931;48.832;9.072;2023-04-07T14:18:51;5.37;;;3.33;;
11747;SDS011;5931;48.832;9.072;2023-04-07T14:21:17;5.00;;;2.90;;
11747;SDS011;5931;48.832;9.072;2023-04-07T14:23:42;4.07;;;2.70;;
11747;SDS011;5931;48.832;9.072;2023-04-07T14:26:09;6.07;;;3.63;;
11747;SDS011;5931;48.832;9.072;2023-04-07T14:28:35;6.07;;;3.43;;
11747;SDS011;5931;48.832;9.072;2023-04-07T14:31:01;4.23;;;3.40;;
11747;SDS011;5931;48.832;9.072;2023-04-07T14:33:27;3.30;;;2.80;;
11747;SDS011;5931;48.832;9.072;2023-04-07T14:35:53;5.13;;;3.17;;
11747;SDS011;5931;48.832;9.072;2023-04-07T14:38:18;3.70;;;3.27;;
11747;SDS011;5931;48.832;9.072;2023-04-07T14:40:48;4.40;;;3.57;;
11747;SDS011;5931;48.832;9.072;2023-04-07T14:43:14;7.73;;;3.97;;
11747;SDS011;5931;48.832;9.072;2023-04-07T14:45:39;7.30;;;3.40;;
11747;SDS011;5931;48.832;9.072;2023-04-07T14:48:05;5.53;;;3.57;;
11747;SDS011;5931;48.832;9.072;2023-04-07T14:50:31;3.80;;;3.10;;
11747;SDS011;5931;48.832;9.072;2023-04-07T14:52:59;8.43;;;4.27;;
11747;SDS011;5931;48.832;9.072;2023-04-07T14:55:25;6.17;;;3.40;;
11747;SDS011;5931;48.832;9.072;2023-04-07T14:57:51;6.70;;;3.23;;
11747;SDS011;5931;48.832;9.072;2023-04-07T15:00:17;4.00;;;3.60;;
11747;SDS011;5931;48.832;9.072;2023-04-07T15:02:42;3.70;;;3.27;;
11747;SDS011;5931;48.832;9.072;2023-04-07T15:05:08;4.53;;;4.13;;
11747;SDS011;5931;48.832;9.072;2023-04-07T15:07:34;5.00;;;3.77;;
11747;SDS011;5931;48.832;9.072;2023-04-07T15:10:01;7.10;;;3.73;;
11747;SDS011;5931;48.832;9.072;2023-04-07T15:12:27;4.30;;;3.90;;
11747;SDS011;5931;48.832;9.072;2023-04-07T15:14:55;4.40;;;4.00;;
11747;SDS011;5931;48.832;9.072;2023-04-07T15:17:21;9.47;;;3.73;;
11747;SDS011;5931;48.832;9.072;2023-04-07T15:19:47;5.23;;;3.83;;
11747;SDS011;5931;48.832;9.072;2023-04-07T15:22:12;4.70;;;3.03;;
11747;SDS011;5931;48.832;9.072;2023-04-07T15:24:38;6.13;;;3.30;;
11747;SDS011;5931;48.832;9.072;2023-04-07T15:27:04;3.70;;;3.40;;
11747;SDS011;5931;48.832;9.072;2023-04-07T15:29:30;5.90;;;4.00;;
11747;SDS011;5931;48.832;9.072;2023-04-07T15:31:56;5.63;;;3.90;;
11747;SDS011;5931;48.832;9.072;2023-04-07T15:34:22;4.50;;;3.07;;